Time;durP1;ratioP1;P1;durP2;ratioP2;P2;SDS_P1;SDS_P2;PMS_P1;PMS_P2;Temp;Humidity;BMP_temperature;BMP_pressure;BME280_temperature;BME280_humidity;BME280_pressure;Samples;Min_cycle;Max_cycle;Signal;HPM_P1;HPM_P2
2021/05/31 00:00:43;;;;;;;3.35;2.08;;;;;;;10.63;48.30;100351.94;5046240;28;20047;-72
2021/05/31 00:03:09;;;;;;;6.28;2.22;;;;;;;10.65;47.85;100344.84;5044425;28;20048;-74
2021/05/31 00:05:35;;;;;;;7.28;2.17;;;;;;;10.73;48.76;100350.97;5043837;28;20637;-70
2021/05/31 00:08:01;;;;;;;6.85;1.83;;;;;;;10.67;48.00;100324.50;5044739;28;20069;-73
2021/05/31 00:10:27;;;;;;;19.70;3.03;;;;;;;10.79;48.01;100346.47;5025260;28;20079;-73
2021/05/31 00:12:53;;;;;;;6.30;2.45;;;;;;;10.67;48.34;100343.06;5030315;28;20067;-71
2021/05/31 00:15:20;;;;;;;4.70;2.00;;;;;;;10.63;47.87;100333.38;5014871;28;20180;-72
2021/05/31 00:17:49;;;;;;;14.82;2.50;;;;;;;10.75;47.95;100339.44;5011939;28;20045;-74
2021/05/31 00:20:16;;;;;;;5.50;2.17;;;;;;;10.84;48.24;100344.63;5045133;28;20143;-68
2021/05/31 00:22:42;;;;;;;5.70;1.83;;;;;;;10.74;47.86;100331.50;5039751;28;21344;-69
2021/05/31 00:25:09;;;;;;;14.57;2.92;;;;;;;10.76;47.71;100319.09;5044690;28;20761;-74
2021/05/31 00:27:37;;;;;;;12.68;3.38;;;;;;;10.60;47.86;100297.16;5014649;28;20627;-75
2021/05/31 00:30:06;;;;;;;7.20;2.90;;;;;;;10.69;48.21;100336.88;4999119;28;21778;-76
2021/05/31 00:32:31;;;;;;;8.75;2.55;;;;;;;10.72;48.09;100341.25;5043310;28;20056;-78
2021/05/31 00:35:07;;;;;;;7.90;2.55;;;;;;;10.71;47.54;100332.41;5044526;28;20891;-77
2021/05/31 00:37:33;;;;;;;7.80;2.17;;;;;;;10.71;48.42;100345.66;5031512;28;20512;-72
2021/05/31 00:39:59;;;;;;;17.02;2.60;;;;;;;10.70;48.54;100337.72;5025942;28;20136;-76
2021/05/31 00:42:25;;;;;;;9.13;2.38;;;;;;;10.57;47.86;100322.84;5044426;28;20156;-75
2021/05/31 00:44:51;;;;;;;6.70;2.45;;;;;;;10.43;48.29;100333.59;5037977;28;20114;-75
2021/05/31 00:47:17;;;;;;;9.25;2.53;;;;;;;10.23;49.00;100327.63;5043445;28;20416;-72
2021/05/31 00:49:44;;;;;;;7.03;2.30;;;;;;;10.49;48.73;100332.66;5045607;28;20037;-74
2021/05/31 00:52:09;;;;;;;9.60;2.13;;;;;;;10.44;48.55;100330.06;5044722;28;20510;-75
2021/05/31 00:54:36;;;;;;;10.35;3.65;;;;;;;10.50;48.37;100337.97;5044486;28;20115;-74
2021/05/31 00:57:03;;;;;;;6.72;1.77;;;;;;;10.44;48.70;100324.75;5042225;28;20094;-75
2021/05/31 00:59:29;;;;;;;6.50;1.88;;;;;;;10.52;48.51;100337.94;5034649;28;20599;-73
2021/05/31 01:01:56;;;;;;;6.13;1.90;;;;;;;10.41;49.25;100335.41;5044522;28;20084;-72
2021/05/31 01:04:22;;;;;;;4.00;1.63;;;;;;;10.47;48.76;100339.75;5025100;28;20064;-71
2021/05/31 01:07:16;;;;;;;10.90;1.90;;;;;;;10.45;49.21;100337.13;5042326;28;20139;-74
2021/05/31 01:09:56;;;;;;;3.95;1.50;;;;;;;10.55;48.28;100344.09;5021259;28;20052;-68
2021/05/31 01:12:39;;;;;;;5.65;1.38;;;;;;;10.38;49.27;100334.53;5044219;28;20048;-72
2021/05/31 01:15:10;;;;;;;6.20;1.55;;;;;;;10.42;49.14;100333.63;5041780;28;20475;-68
2021/05/31 01:17:45;;;;;;;3.65;1.58;;;;;;;10.42;49.45;100326.56;5034721;28;20491;-73
2021/05/31 01:20:47;;;;;;;11.75;1.65;;;;;;;10.29;49.72;100309.03;5040122;28;20064;-70
2021/05/31 01:23:16;;;;;;;9.25;1.50;;;;;;;10.28;49.59;100323.16;5043737;28;20047;-72
2021/05/31 01:26:13;;;;;;;9.45;1.48;;;;;;;10.44;49.20;100337.16;5022077;28;20085;-70
2021/05/31 01:28:46;;;;;;;6.50;1.38;;;;;;;10.40;49.48;100341.59;4955417;28;20152;-73
2021/05/31 01:31:17;;;;;;;11.35;1.58;;;;;;;10.38;49.04;100331.88;4953814;28;20072;-73
2021/05/31 01:33:46;;;;;;;4.97;1.40;;;;;;;10.09;49.92;100310.09;4964867;28;20129;-73
2021/05/31 01:36:13;;;;;;;7.25;1.30;;;;;;;10.31;49.84;100338.13;4968135;28;20072;-73
2021/05/31 01:38:40;;;;;;;2.10;1.20;;;;;;;10.27;49.75;100328.47;4969784;28;20047;-74
2021/05/31 01:41:08;;;;;;;8.15;1.67;;;;;;;10.29;50.00;100346.13;4972169;28;20077;-71
2021/05/31 01:43:37;;;;;;;4.63;1.58;;;;;;;10.12;50.32;100318.03;4970529;28;20703;-72
2021/05/31 01:46:03;;;;;;;8.30;1.83;;;;;;;10.18;50.42;100345.34;4974183;28;20065;-67
2021/05/31 01:48:30;;;;;;;5.45;1.33;;;;;;;10.22;50.10;100347.09;4970986;28;20039;-71
2021/05/31 01:50:58;;;;;;;8.48;1.85;;;;;;;10.22;50.65;100357.69;4974764;28;20062;-72
2021/05/31 01:53:25;;;;;;;6.78;1.50;;;;;;;10.21;50.23;100355.03;4959534;28;20065;-70
2021/05/31 01:55:51;;;;;;;11.55;1.40;;;;;;;9.94;50.17;100352.59;4969865;28;20358;-70
2021/05/31 01:58:18;;;;;;;8.07;1.48;;;;;;;10.04;50.58;100359.59;4940492;28;20050;-71
2021/05/31 02:00:44;;;;;;;5.95;1.63;;;;;;;10.07;50.95;100368.41;4967906;28;20447;-79
2021/05/31 02:03:11;;;;;;;12.00;1.42;;;;;;;9.92;51.08;100343.78;4948412;28;20042;-70
2021/05/31 02:05:37;;;;;;;4.00;1.45;;;;;;;10.09;50.86;100360.44;5020464;28;20064;-72
2021/05/31 02:08:03;;;;;;;4.72;1.40;;;;;;;10.07;50.59;100349.88;5048788;28;20037;-71
2021/05/31 02:10:29;;;;;;;4.72;1.50;;;;;;;10.22;50.79;100370.03;5048251;28;20049;-73
2021/05/31 02:13:00;;;;;;;5.95;1.25;;;;;;;10.22;50.63;100370.03;5046473;28;20104;-71
2021/05/31 02:15:58;;;;;;;4.22;1.30;;;;;;;10.28;50.08;100375.31;5046939;28;20057;-72
2021/05/31 02:18:29;;;;;;;7.68;1.65;;;;;;;10.15;50.57;100345.38;4963915;28;20047;-72
2021/05/31 02:21:14;;;;;;;7.72;1.70;;;;;;;10.26;50.40;100367.38;4971564;28;20046;-70
2021/05/31 02:23:41;;;;;;;8.93;1.67;;;;;;;10.26;50.65;100385.91;4960354;28;20054;-72
2021/05/31 02:26:13;;;;;;;5.18;1.20;;;;;;;10.38;49.87;100383.16;4986314;28;20525;-70
2021/05/31 02:28:39;;;;;;;2.45;1.40;;;;;;;10.37;50.60;100391.13;4984115;28;20089;-72
2021/05/31 02:31:07;;;;;;;11.50;2.25;;;;;;;10.39;50.80;100379.59;4981772;28;20097;-73
2021/05/31 02:33:33;;;;;;;6.22;1.70;;;;;;;10.06;50.68;100366.66;4974623;28;20046;-71
2021/05/31 02:35:59;;;;;;;5.43;1.75;;;;;;;10.37;50.58;100394.66;4957810;28;20511;-75
2021/05/31 02:38:25;;;;;;;11.13;1.52;;;;;;;10.42;50.67;100390.19;4965749;28;20130;-72
2021/05/31 02:40:51;;;;;;;6.97;1.40;;;;;;;10.52;50.43;100399.78;4969986;28;20158;-77
2021/05/31 02:43:17;;;;;;;6.47;1.40;;;;;;;10.46;50.32;100364.50;4967931;28;20089;-73
2021/05/31 02:45:44;;;;;;;2.08;1.30;;;;;;;10.63;49.54;100389.06;4985966;28;20074;-75
2021/05/31 02:48:10;;;;;;;8.90;1.35;;;;;;;10.67;49.63;100396.97;4958104;28;20077;-76
2021/05/31 02:50:36;;;;;;;5.47;1.52;;;;;;;10.57;50.40;100387.38;4977414;28;20116;-76
2021/05/31 02:53:03;;;;;;;3.38;1.48;;;;;;;10.63;50.04;100389.97;4985726;28;20063;-78
2021/05/31 02:55:31;;;;;;;6.38;1.40;;;;;;;10.75;49.63;100397.78;4994670;28;20141;-71
2021/05/31 02:57:57;;;;;;;10.88;1.60;;;;;;;10.66;49.92;100375.78;5045231;28;20714;-77
2021/05/31 03:00:26;;;;;;;8.43;1.73;;;;;;;10.72;49.24;100395.16;5025825;28;20041;-77
2021/05/31 03:02:53;;;;;;;5.47;1.40;;;;;;;10.69;50.41;100399.63;5015129;28;20088;-73
2021/05/31 03:05:28;;;;;;;7.57;1.58;;;;;;;10.85;49.38;100395.91;5023417;28;20052;-74
2021/05/31 03:07:59;;;;;;;5.75;1.83;;;;;;;10.92;49.29;100389.66;5047296;28;20087;-75
2021/05/31 03:10:27;;;;;;;10.20;1.98;;;;;;;10.82;49.60;100396.84;5030973;28;20059;-76
2021/05/31 03:12:53;;;;;;;9.52;1.85;;;;;;;10.91;49.67;100385.25;5028206;28;20469;-75
2021/05/31 03:15:20;;;;;;;10.15;1.85;;;;;;;10.98;49.38;100395.75;5046680;28;20044;-75
2021/05/31 03:17:47;;;;;;;11.55;1.95;;;;;;;11.00;48.90;100401.06;5042644;28;20045;-78
2021/05/31 03:20:14;;;;;;;15.20;2.63;;;;;;;11.11;48.95;100392.06;5005015;28;20049;-65
2021/05/31 03:22:40;;;;;;;14.20;2.70;;;;;;;11.02;49.39;100399.25;5029680;28;20099;-68
2021/05/31 03:25:08;;;;;;;18.67;2.75;;;;;;;11.13;48.92;100397.34;5033309;28;20045;-67
2021/05/31 03:27:34;;;;;;;26.15;2.90;;;;;;;11.31;48.38;100408.59;5039575;28;20049;-68
2021/05/31 03:30:00;;;;;;;10.30;2.50;;;;;;;11.39;48.34;100413.84;5045232;28;20425;-67
2021/05/31 03:32:26;;;;;;;7.80;1.95;;;;;;;11.57;47.77;100424.19;5028079;28;20123;-66
2021/05/31 03:34:52;;;;;;;10.40;2.08;;;;;;;11.55;47.84;100418.06;5027974;28;20167;-67
2021/05/31 03:37:18;;;;;;;12.27;1.83;;;;;;;11.47;48.60;100411.97;5009779;28;20048;-69
2021/05/31 03:39:45;;;;;;;4.15;1.95;;;;;;;11.65;48.09;100417.03;5046972;28;20067;-69
2021/05/31 03:42:12;;;;;;;4.40;1.52;;;;;;;11.41;47.89;100398.75;5045737;28;20045;-69
2021/05/31 03:44:38;;;;;;;8.32;1.77;;;;;;;11.82;47.67;100412.34;5045234;28;20045;-69
2021/05/31 03:47:04;;;;;;;8.73;1.83;;;;;;;11.85;46.96;100418.53;5026499;28;20063;-67
2021/05/31 03:49:30;;;;;;;10.90;1.80;;;;;;;11.78;46.99;100419.50;5027250;28;20523;-67
2021/05/31 03:51:55;;;;;;;5.63;1.70;;;;;;;11.62;47.67;100427.69;5046710;28;20040;-67
2021/05/31 03:54:21;;;;;;;10.68;1.77;;;;;;;11.61;47.86;100426.84;5043327;28;20037;-67
2021/05/31 03:56:47;;;;;;;5.65;1.65;;;;;;;11.81;47.19;100418.56;5027747;28;20119;-67
2021/05/31 03:59:13;;;;;;;9.38;1.73;;;;;;;11.95;46.94;100427.25;5025517;28;20175;-69
2021/05/31 04:01:40;;;;;;;6.35;1.60;;;;;;;12.00;46.85;100399.69;5029054;28;20159;-70
2021/05/31 04:04:05;;;;;;;5.65;1.73;;;;;;;12.18;46.63;100417.97;5041992;28;20055;-71
2021/05/31 04:06:54;;;;;;;9.60;1.58;;;;;;;12.02;46.58;100394.31;5028930;28;20057;-69
2021/05/31 04:12:05;;;;;;;5.70;1.92;;;;;;;12.00;46.68;100414.75;5042326;28;20056;-69
2021/05/31 04:14:31;;;;;;;7.00;1.45;;;;;;;12.23;46.36;100415.25;5008646;28;20049;-70
2021/05/31 04:16:57;;;;;;;5.90;1.45;;;;;;;12.21;46.51;100409.97;5016821;28;20041;-70
2021/05/31 04:19:25;;;;;;;8.48;2.75;;;;;;;12.19;46.27;100411.75;5044679;28;20040;-69
2021/05/31 04:21:54;;;;;;;11.18;1.73;;;;;;;12.09;46.58;100426.13;5027081;28;20438;-68
2021/05/31 04:24:21;;;;;;;9.38;1.88;;;;;;;12.14;46.85;100416.28;5037173;28;20049;-71
2021/05/31 04:26:47;;;;;;;6.68;1.38;;;;;;;12.24;46.27;100427.66;4995254;28;20071;-69
2021/05/31 04:29:15;;;;;;;14.52;1.90;;;;;;;12.41;46.64;100426.47;5007938;28;20180;-66
2021/05/31 04:31:42;;;;;;;10.75;1.60;;;;;;;12.16;46.03;100432.22;5026547;28;20036;-68
2021/05/31 04:34:09;;;;;;;7.50;1.77;;;;;;;12.18;46.65;100433.09;5041718;28;20052;-69
2021/05/31 04:36:36;;;;;;;7.40;1.92;;;;;;;12.23;45.88;100410.81;5007635;28;20072;-66
2021/05/31 04:39:05;;;;;;;10.60;1.50;;;;;;;12.35;45.70;100431.88;5044161;28;20097;-68
2021/05/31 04:41:32;;;;;;;9.70;2.10;;;;;;;12.54;45.62;100421.81;5024043;28;20040;-67
2021/05/31 04:43:57;;;;;;;4.45;1.80;;;;;;;12.68;45.63;100423.34;5044816;28;20155;-67
2021/05/31 04:46:23;;;;;;;3.92;1.40;;;;;;;12.70;45.05;100418.84;5044346;28;20525;-66
2021/05/31 04:48:49;;;;;;;11.40;1.55;;;;;;;12.88;45.31;100430.94;5025521;28;20226;-68
2021/05/31 04:51:15;;;;;;;8.98;1.33;;;;;;;12.92;44.64;100422.88;5043731;28;20497;-66
2021/05/31 04:53:41;;;;;;;5.53;1.65;;;;;;;12.99;44.56;100427.22;5044102;28;20201;-67
2021/05/31 04:56:10;;;;;;;20.30;1.90;;;;;;;12.95;44.57;100420.16;5022273;28;20182;-67
2021/05/31 04:58:36;;;;;;;17.83;1.92;;;;;;;12.94;44.64;100418.38;5027520;28;20041;-67
2021/05/31 05:01:02;;;;;;;6.55;1.70;;;;;;;13.03;45.08;100423.59;5036903;28;20709;-68
2021/05/31 05:03:28;;;;;;;3.95;1.33;;;;;;;12.73;44.33;100412.59;5043720;28;20051;-66
2021/05/31 05:05:54;;;;;;;5.38;1.55;;;;;;;12.88;44.58;100425.63;5010301;28;20041;-65
2021/05/31 05:08:20;;;;;;;11.60;1.52;;;;;;;12.84;44.29;100431.91;5042771;28;20076;-68
2021/05/31 05:10:46;;;;;;;10.88;1.40;;;;;;;12.52;45.11;100424.50;5045041;28;20140;-69
2021/05/31 05:13:12;;;;;;;11.32;2.00;;;;;;;12.70;45.23;100425.97;5035976;28;20055;-68
2021/05/31 05:15:39;;;;;;;7.32;1.80;;;;;;;12.66;44.49;100425.13;5042063;28;20896;-69
2021/05/31 05:18:05;;;;;;;9.75;1.83;;;;;;;12.87;44.48;100426.53;5048912;28;20055;-71
2021/05/31 05:20:33;;;;;;;3.95;1.65;;;;;;;12.91;44.52;100429.13;5024485;28;20177;-72
2021/05/31 05:23:00;;;;;;;5.40;1.55;;;;;;;12.98;44.22;100429.91;5022412;28;20139;-70
2021/05/31 05:25:26;;;;;;;8.00;2.03;;;;;;;13.04;44.29;100419.13;5030494;28;20068;-71
2021/05/31 05:27:53;;;;;;;10.68;2.20;;;;;;;13.08;44.21;100412.81;5043125;28;20072;-68
2021/05/31 05:30:29;;;;;;;6.20;1.45;;;;;;;12.90;44.92;100431.81;5049888;28;20425;-68
2021/05/31 05:33:01;;;;;;;11.18;1.65;;;;;;;13.24;44.69;100427.59;5048369;28;20049;-67
2021/05/31 05:48:14;;;;;;;8.65;1.77;;;;;;;13.78;42.17;100416.63;5047232;28;20497;-69
2021/05/31 05:50:40;;;;;;;12.70;2.60;;;;;;;14.11;42.00;100430.97;5035248;28;20041;-68
2021/05/31 05:53:06;;;;;;;9.38;1.70;;;;;;;13.94;43.08;100427.84;5048289;28;20520;-70
2021/05/31 05:55:32;;;;;;;17.90;2.80;;;;;;;13.87;42.52;100428.88;5050171;28;20183;-67
2021/05/31 05:57:58;;;;;;;11.63;1.67;;;;;;;13.98;42.47;100431.28;5034228;28;20084;-67
2021/05/31 06:00:26;;;;;;;8.30;1.75;;;;;;;14.12;41.92;100434.53;5038326;28;20041;-67
2021/05/31 06:02:53;;;;;;;10.05;1.45;;;;;;;14.30;42.03;100426.09;5045842;28;20472;-67
2021/05/31 06:05:19;;;;;;;7.15;1.65;;;;;;;14.45;41.52;100415.06;5049170;28;20603;-68
2021/05/31 06:07:45;;;;;;;5.88;1.58;;;;;;;14.93;40.95;100429.78;5051233;28;20048;-67
2021/05/31 06:10:12;;;;;;;8.00;1.85;;;;;;;14.90;40.83;100430.75;5019457;28;20113;-67
2021/05/31 06:12:39;;;;;;;6.93;1.40;;;;;;;15.23;40.29;100437.81;5032022;28;20036;-69
2021/05/31 06:15:06;;;;;;;8.00;1.60;;;;;;;14.74;40.50;100418.72;5014367;28;20047;-67
2021/05/31 06:17:33;;;;;;;12.25;1.85;;;;;;;15.03;40.46;100417.94;5048045;28;20550;-68
2021/05/31 06:20:01;;;;;;;16.20;2.13;;;;;;;15.03;40.25;100428.63;5042167;28;20160;-69
2021/05/31 06:22:32;;;;;;;3.08;1.48;;;;;;;15.36;40.15;100423.25;5041024;28;20042;-72
2021/05/31 06:25:01;;;;;;;6.93;1.52;;;;;;;15.43;39.95;100424.78;5043215;28;20044;-70
2021/05/31 06:27:27;;;;;;;7.78;1.30;;;;;;;15.34;40.20;100438.41;5048964;28;20040;-71
2021/05/31 06:29:53;;;;;;;19.33;1.63;;;;;;;15.45;39.97;100432.78;5046945;28;20059;-67
2021/05/31 06:32:19;;;;;;;9.43;1.70;;;;;;;15.72;39.59;100431.97;5046714;28;20160;-67
2021/05/31 06:34:45;;;;;;;9.85;1.60;;;;;;;15.55;39.61;100400.38;5030854;28;20139;-65
2021/05/31 06:37:11;;;;;;;3.25;1.35;;;;;;;15.75;39.07;100423.84;5036292;28;20037;-68
2021/05/31 06:39:37;;;;;;;5.53;1.50;;;;;;;15.74;39.48;100428.31;5046627;28;20047;-68
2021/05/31 06:42:03;;;;;;;10.20;1.88;;;;;;;15.33;39.89;100427.75;5031358;28;20479;-69
2021/05/31 06:44:29;;;;;;;7.30;2.10;;;;;;;15.39;40.24;100407.09;5043744;28;20060;-68
2021/05/31 06:46:55;;;;;;;11.00;1.70;;;;;;;15.71;39.18;100430.22;5026069;28;20453;-69
2021/05/31 06:49:23;;;;;;;10.30;2.10;;;;;;;15.71;39.46;100406.16;5030989;28;20045;-68
2021/05/31 06:51:49;;;;;;;8.73;1.88;;;;;;;16.00;38.76;100428.41;5042854;28;20040;-69
2021/05/31 06:54:15;;;;;;;8.38;1.58;;;;;;;15.88;38.98;100434.13;5030139;28;20167;-66
2021/05/31 06:56:41;;;;;;;8.80;2.03;;;;;;;16.24;38.03;100437.44;5012886;28;20041;-68
2021/05/31 06:59:08;;;;;;;11.57;1.77;;;;;;;16.30;38.00;100435.44;5038839;28;20060;-70
2021/05/31 07:01:33;;;;;;;6.78;2.50;;;;;;;16.50;37.49;100433.00;5042628;28;20108;-73
2021/05/31 07:03:59;;;;;;;6.93;1.70;;;;;;;16.55;37.77;100427.50;5014225;28;20041;-70
2021/05/31 07:06:26;;;;;;;7.90;2.10;;;;;;;16.87;37.16;100438.00;5036399;28;20048;-71
2021/05/31 07:08:52;;;;;;;8.10;1.95;;;;;;;16.80;36.62;100431.97;5040573;28;20420;-70
2021/05/31 07:11:22;;;;;;;6.63;2.28;;;;;;;17.00;36.60;100415.19;5027284;28;20338;-66
2021/05/31 07:13:47;;;;;;;5.60;2.20;;;;;;;16.72;36.61;100428.69;5044363;28;20045;-70
2021/05/31 07:16:14;;;;;;;6.25;1.83;;;;;;;16.97;36.10;100424.22;5029205;28;20048;-70
2021/05/31 07:18:41;;;;;;;5.65;1.80;;;;;;;17.24;35.76;100425.91;5013855;28;20528;-69
2021/05/31 07:21:10;;;;;;;7.47;1.77;;;;;;;17.23;35.81;100432.22;5045064;28;20041;-75
2021/05/31 07:23:37;;;;;;;4.60;1.90;;;;;;;17.32;35.71;100421.13;5042599;28;20398;-74
2021/05/31 07:26:07;;;;;;;7.47;1.83;;;;;;;17.67;35.41;100427.88;5028234;28;20084;-69
2021/05/31 07:28:33;;;;;;;9.05;2.35;;;;;;;17.29;35.59;100426.59;5045961;28;20957;-75
2021/05/31 07:31:01;;;;;;;16.17;2.60;;;;;;;16.58;37.15;100416.69;5046345;28;20056;-74
2021/05/31 07:33:27;;;;;;;11.10;2.33;;;;;;;16.84;36.86;100430.06;5043399;28;20118;-74
2021/05/31 07:35:54;;;;;;;7.55;2.30;;;;;;;17.31;35.51;100419.41;5024599;28;20047;-73
2021/05/31 07:38:21;;;;;;;7.72;2.35;;;;;;;17.49;36.11;100425.91;5046217;28;20120;-73
2021/05/31 07:40:48;;;;;;;5.82;2.17;;;;;;;17.37;35.11;100420.97;5012232;28;20048;-75
2021/05/31 07:43:14;;;;;;;5.47;2.35;;;;;;;17.48;35.77;100424.16;5010094;28;20047;-74
2021/05/31 07:45:41;;;;;;;9.93;2.53;;;;;;;17.58;35.28;100421.09;5046094;28;20045;-75
2021/05/31 07:48:07;;;;;;;9.63;2.15;;;;;;;17.26;35.97;100428.53;5032345;28;20040;-73
2021/05/31 07:50:33;;;;;;;6.90;2.35;;;;;;;17.25;35.44;100433.00;5028330;28;20135;-76
2021/05/31 07:52:59;;;;;;;9.50;2.45;;;;;;;17.25;35.69;100416.94;5017290;28;20528;-81
2021/05/31 07:55:25;;;;;;;9.27;2.58;;;;;;;17.18;35.69;100436.84;5027857;28;20045;-71
2021/05/31 07:57:52;;;;;;;7.78;2.53;;;;;;;17.17;35.79;100424.38;5027838;28;20041;-71
2021/05/31 08:00:19;;;;;;;13.77;2.70;;;;;;;16.58;36.33;100430.09;5043525;28;20045;-68
2021/05/31 08:02:49;;;;;;;19.33;2.80;;;;;;;16.76;36.15;100433.00;5043834;28;20118;-78
2021/05/31 08:05:17;;;;;;;13.98;3.22;;;;;;;16.84;36.36;100428.25;5032567;28;20492;-74
2021/05/31 08:07:44;;;;;;;12.15;2.60;;;;;;;16.80;35.22;100431.09;5044022;28;20049;-75
2021/05/31 08:10:11;;;;;;;15.45;2.10;;;;;;;16.78;35.63;100428.47;5026883;28;20105;-79
2021/05/31 08:12:38;;;;;;;8.35;1.90;;;;;;;16.91;35.33;100428.91;4994527;28;20076;-79
2021/05/31 08:15:06;;;;;;;6.72;1.60;;;;;;;16.42;34.38;100432.38;5026376;28;20783;-76
2021/05/31 08:17:33;;;;;;;17.02;1.88;;;;;;;16.33;33.79;100427.31;5020920;28;20059;-73
2021/05/31 08:19:59;;;;;;;10.85;1.77;;;;;;;16.36;33.78;100429.00;5005139;28;20044;-74
2021/05/31 08:22:25;;;;;;;7.40;1.63;;;;;;;16.41;33.67;100446.72;5044126;28;20092;-79
2021/05/31 08:24:51;;;;;;;7.72;2.03;;;;;;;16.40;32.79;100441.38;5023883;28;20079;-75
2021/05/31 08:27:17;;;;;;;7.05;1.10;;;;;;;16.23;32.17;100430.34;5010815;28;20117;-70
2021/05/31 08:29:43;;;;;;;3.97;1.52;;;;;;;16.61;31.35;100430.84;5010863;28;20064;-80
2021/05/31 08:32:09;;;;;;;7.72;1.63;;;;;;;16.71;31.94;100436.78;4994387;28;20040;-79
2021/05/31 08:34:35;;;;;;;10.40;1.67;;;;;;;17.15;31.87;100433.41;5015598;28;20084;-75
2021/05/31 08:37:01;;;;;;;15.93;1.80;;;;;;;16.98;31.89;100433.16;5009219;28;20171;-78
2021/05/31 08:39:27;;;;;;;6.00;1.55;;;;;;;16.82;31.50;100432.78;5010427;28;20453;-79
2021/05/31 08:41:54;;;;;;;10.68;2.30;;;;;;;16.83;32.34;100421.16;5025257;28;20448;-73
2021/05/31 08:44:30;;;;;;;3.75;1.33;;;;;;;16.95;31.83;100426.09;5009266;28;20118;-79
2021/05/31 08:47:01;;;;;;;6.97;2.03;;;;;;;16.88;32.29;100431.69;5010485;28;20045;-72
2021/05/31 08:49:28;;;;;;;13.80;1.90;;;;;;;16.77;32.62;100428.53;5023949;28;20068;-73
2021/05/31 08:51:54;;;;;;;8.50;1.58;;;;;;;16.81;33.09;100430.19;5024719;28;20044;-71
2021/05/31 08:54:20;;;;;;;5.85;1.83;;;;;;;16.87;32.18;100420.13;5024275;28;20037;-73
2021/05/31 08:56:46;;;;;;;7.75;2.25;;;;;;;17.63;31.83;100426.25;5024154;28;20041;-73
2021/05/31 08:59:12;;;;;;;8.80;2.42;;;;;;;17.91;31.23;100429.63;5041291;28;20060;-76
2021/05/31 09:01:38;;;;;;;10.73;1.98;;;;;;;17.33;31.92;100422.03;5028187;28;20049;-78
2021/05/31 09:04:04;;;;;;;6.22;1.60;;;;;;;17.19;31.94;100427.88;5026486;28;20421;-72
2021/05/31 09:06:30;;;;;;;3.88;1.38;;;;;;;16.93;32.52;100413.69;5025622;28;20045;-70
2021/05/31 09:08:58;;;;;;;12.43;2.45;;;;;;;16.78;32.37;100400.81;5026081;28;20048;-69
2021/05/31 09:11:27;;;;;;;4.68;1.55;;;;;;;16.91;32.96;100413.72;5042164;28;20127;-71
2021/05/31 09:13:54;;;;;;;12.48;1.83;;;;;;;17.03;32.61;100413.28;5042657;28;20075;-71
2021/05/31 09:16:28;;;;;;;4.65;1.30;;;;;;;16.92;33.10;100417.28;5041033;28;20040;-70
2021/05/31 09:18:58;;;;;;;12.50;1.58;;;;;;;17.02;32.85;100413.34;5022818;28;20330;-70
2021/05/31 09:21:30;;;;;;;8.38;2.03;;;;;;;16.96;32.79;100409.09;4978080;28;20049;-75
2021/05/31 09:24:03;;;;;;;6.40;1.77;;;;;;;16.94;32.66;100415.44;5024063;28;20041;-78
2021/05/31 09:26:29;;;;;;;9.07;1.40;;;;;;;17.06;32.65;100405.13;5025831;28;20068;-76
2021/05/31 09:29:01;;;;;;;7.25;2.03;;;;;;;16.99;32.96;100411.66;5041780;28;20053;-74
2021/05/31 09:31:30;;;;;;;5.30;1.80;;;;;;;16.74;33.78;100415.25;5025945;28;20064;-73
2021/05/31 09:34:00;;;;;;;3.05;1.30;;;;;;;16.64;33.84;100408.44;5024930;28;20049;-74
2021/05/31 09:36:26;;;;;;;3.63;1.13;;;;;;;16.95;33.27;100403.78;5010623;28;20068;-69
2021/05/31 09:38:53;;;;;;;8.75;1.70;;;;;;;17.04;33.65;100409.69;5020916;28;20052;-77
2021/05/31 09:41:28;;;;;;;8.73;1.63;;;;;;;17.34;33.14;100413.03;5011389;28;20123;-72
2021/05/31 09:44:00;;;;;;;20.73;2.35;;;;;;;17.50;33.23;100414.25;5040721;28;20497;-71
2021/05/31 09:46:41;;;;;;;7.73;1.43;;;;;;;17.02;32.92;100354.41;5025752;28;20728;-71
2021/05/31 09:49:20;;;;;;;2.83;1.40;;;;;;;17.75;31.98;100410.59;5026396;28;20299;-76
2021/05/31 09:51:55;;;;;;;7.75;1.60;;;;;;;17.71;32.23;100411.63;5008238;28;20044;-73
2021/05/31 09:54:34;;;;;;;9.25;1.30;;;;;;;17.65;32.40;100406.50;5044251;28;20044;-74
2021/05/31 09:57:16;;;;;;;7.88;1.50;;;;;;;17.77;31.84;100408.69;5024200;28;20036;-75
2021/05/31 09:59:53;;;;;;;5.35;1.45;;;;;;;17.89;32.54;100415.41;5029522;28;20044;-73
2021/05/31 10:02:29;;;;;;;11.18;2.10;;;;;;;17.85;32.47;100409.25;5015214;28;20052;-71
2021/05/31 10:05:02;;;;;;;7.88;2.00;;;;;;;17.52;33.13;100388.25;4994091;28;20468;-74
2021/05/31 10:07:43;;;;;;;13.07;1.88;;;;;;;17.53;33.61;100411.47;5046341;28;20516;-70
2021/05/31 10:10:10;;;;;;;7.88;1.85;;;;;;;17.25;33.72;100408.88;4993474;28;20313;-74
2021/05/31 10:12:40;;;;;;;6.47;1.15;;;;;;;16.45;34.52;100407.31;5019514;28;20529;-78
2021/05/31 10:15:09;;;;;;;3.00;1.30;;;;;;;16.26;35.58;100424.91;5045044;28;20055;-77
2021/05/31 10:17:35;;;;;;;5.70;1.23;;;;;;;15.77;35.87;100414.88;5033017;28;20044;-73
2021/05/31 10:20:02;;;;;;;5.88;1.35;;;;;;;15.52;37.56;100418.31;5045307;28;20480;-74
2021/05/31 10:22:32;;;;;;;4.28;1.00;;;;;;;15.70;36.85;100423.97;5045637;28;20045;-74
2021/05/31 10:25:01;;;;;;;3.20;1.17;;;;;;;15.44;36.86;100437.25;5048051;28;20899;-73
2021/05/31 10:27:32;;;;;;;4.45;1.73;;;;;;;15.24;39.42;100430.69;5036896;28;20047;-70
2021/05/31 10:30:00;;;;;;;7.55;1.60;;;;;;;15.24;39.79;100428.91;5045896;28;20069;-66
2021/05/31 10:32:28;;;;;;;11.23;1.50;;;;;;;15.05;40.84;100426.78;5048385;28;20121;-69
2021/05/31 10:34:54;;;;;;;3.70;1.42;;;;;;;15.11;39.66;100437.31;5044814;28;20045;-73
2021/05/31 10:37:29;;;;;;;4.30;1.50;;;;;;;15.02;39.35;100430.41;4994490;28;20094;-71
2021/05/31 10:40:03;;;;;;;6.78;1.77;;;;;;;14.82;39.51;100424.72;5006927;28;20029;-72
2021/05/31 10:42:46;;;;;;;6.13;1.70;;;;;;;15.08;39.34;100432.03;5027131;28;20045;-71
2021/05/31 10:45:26;;;;;;;10.75;1.80;;;;;;;15.18;39.55;100421.06;5027906;28;20777;-71
2021/05/31 10:47:59;;;;;;;14.35;2.25;;;;;;;15.37;39.18;100433.00;5026203;28;20037;-73
2021/05/31 10:50:37;;;;;;;12.77;2.28;;;;;;;15.45;38.77;100433.66;5025727;28;20128;-72
2021/05/31 10:53:08;;;;;;;11.60;2.63;;;;;;;15.54;38.39;100427.19;5038756;28;20059;-73
2021/05/31 10:55:36;;;;;;;12.85;2.38;;;;;;;15.57;38.45;100430.63;5035946;28;20045;-72
2021/05/31 10:58:16;;;;;;;7.20;2.33;;;;;;;15.86;37.46;100435.97;5022283;28;20045;-72
2021/05/31 11:00:59;;;;;;;5.93;2.35;;;;;;;15.71;37.48;100447.13;5001349;28;20090;-72
2021/05/31 11:03:29;;;;;;;13.38;3.42;;;;;;;16.33;37.30;100437.13;5022045;28;20034;-76
2021/05/31 11:05:56;;;;;;;9.48;3.45;;;;;;;16.67;36.86;100433.34;5013623;28;20174;-72
2021/05/31 11:08:31;;;;;;;14.68;4.43;;;;;;;17.14;36.16;100442.38;5043736;28;20048;-73
2021/05/31 11:11:00;;;;;;;8.20;2.75;;;;;;;17.00;35.59;100432.16;5045337;28;20056;-76
2021/05/31 11:13:27;;;;;;;7.15;2.65;;;;;;;17.03;35.21;100439.22;5045370;28;20094;-69
2021/05/31 11:16:09;;;;;;;6.05;2.75;;;;;;;16.94;35.98;100436.84;5044622;28;20041;-72
2021/05/31 11:18:47;;;;;;;4.32;1.55;;;;;;;17.16;35.10;100452.13;5030417;28;20041;-70
2021/05/31 11:21:28;;;;;;;7.47;1.60;;;;;;;17.08;35.14;100445.25;5015158;28;20039;-72
2021/05/31 11:24:09;;;;;;;9.82;1.88;;;;;;;16.78;35.64;100439.19;5034312;28;20049;-71
2021/05/31 11:26:37;;;;;;;9.90;1.88;;;;;;;17.21;35.25;100446.59;5017087;28;20045;-73
2021/05/31 11:29:06;;;;;;;5.47;1.55;;;;;;;17.06;35.19;100442.63;5046452;28;20053;-74
2021/05/31 11:31:33;;;;;;;12.13;2.30;;;;;;;17.41;34.32;100428.00;5028859;28;20033;-73
2021/05/31 11:34:01;;;;;;;5.32;1.50;;;;;;;17.41;34.15;100422.66;5029312;28;20037;-70
2021/05/31 11:36:37;;;;;;;5.53;1.55;;;;;;;18.15;33.36;100436.69;5020700;28;20045;-70
2021/05/31 11:39:15;;;;;;;5.40;1.67;;;;;;;18.49;33.29;100412.94;5032689;28;20045;-72
2021/05/31 11:41:46;;;;;;;7.05;2.03;;;;;;;19.13;32.84;100438.81;5029899;28;20055;-69
2021/05/31 11:44:14;;;;;;;9.38;2.13;;;;;;;19.57;31.97;100440.41;5028996;28;20481;-72